sensor_id;sensor_type;location;lat;lon;timestamp;pressure;altitude;pressure_sealevel;temperature;humidity
10064;BME280;5071;52.360;13.134;2023-01-28T00:00:56;102233.22;;;0.66;82.92
10064;BME280;5071;52.360;13.134;2023-01-28T00:06:01;102232.38;;;0.50;84.31
10064;BME280;5071;52.360;13.134;2023-01-28T00:11:09;102230.25;;;0.43;84.05
10064;BME280;5071;52.360;13.134;2023-01-28T00:16:13;102242.91;;;0.35;85.69
10064;BME280;5071;52.360;13.134;2023-01-28T00:21:15;102241.13;;;0.34;83.42
10064;BME280;5071;52.360;13.134;2023-01-28T00:26:17;102248.56;;;0.27;84.23
10064;BME280;5071;52.360;13.134;2023-01-28T00:31:22;102249.13;;;0.21;84.02
10064;BME280;5071;52.360;13.134;2023-01-28T00:36:26;102245.19;;;0.13;84.46
10064;BME280;5071;52.360;13.134;2023-01-28T00:41:28;102248.88;;;0.00;85.82
10064;BME280;5071;52.360;13.134;2023-01-28T00:46:32;102250.41;;;-0.04;85.92
10064;BME280;5071;52.360;13.134;2023-01-28T00:51:34;102251.25;;;0.12;85.07
10064;BME280;5071;52.360;13.134;2023-01-28T00:56:36;102257.13;;;0.08;85.57
10064;BME280;5071;52.360;13.134;2023-01-28T01:01:40;102255.34;;;-0.08;86.92
10064;BME280;5071;52.360;13.134;2023-01-28T01:06:42;102259.34;;;-0.15;87.24
10064;BME280;5071;52.360;13.134;2023-01-28T01:11:44;102252.31;;;-0.16;88.01
10064;BME280;5071;52.360;13.134;2023-01-28T01:16:48;102256.56;;;-0.18;87.99
10064;BME280;5071;52.360;13.134;2023-01-28T01:21:50;102258.97;;;-0.21;87.92
10064;BME280;5071;52.360;13.134;2023-01-28T01:26:52;102260.47;;;-0.26;88.03
10064;BME280;5071;52.360;13.134;2023-01-28T01:31:56;102251.81;;;-0.25;88.55
10064;BME280;5071;52.360;13.134;2023-01-28T01:36:58;102262.06;;;-0.28;88.52
10064;BME280;5071;52.360;13.134;2023-01-28T01:42:01;102255.63;;;-0.35;87.83
10064;BME280;5071;52.360;13.134;2023-01-28T01:47:04;102265.84;;;-0.38;88.19
10064;BME280;5071;52.360;13.134;2023-01-28T01:52:10;102281.28;;;-0.43;88.13
10064;BME280;5071;52.360;13.134;2023-01-28T01:57:15;102279.00;;;-0.36;89.47
10064;BME280;5071;52.360;13.134;2023-01-28T02:02:23;102282.78;;;-0.31;88.93
10064;BME280;5071;52.360;13.134;2023-01-28T02:07:25;102283.66;;;-0.31;88.82
10064;BME280;5071;52.360;13.134;2023-01-28T02:12:30;102285.81;;;-0.24;88.01
10064;BME280;5071;52.360;13.134;2023-01-28T02:17:37;102278.66;;;-0.11;85.35
10064;BME280;5071;52.360;13.134;2023-01-28T02:23:00;102279.66;;;-0.09;85.27
10064;BME280;5071;52.360;13.134;2023-01-28T02:28:14;102272.56;;;-0.12;84.73
10064;BME280;5071;52.360;13.134;2023-01-28T02:33:28;102283.97;;;-0.10;83.83
10064;BME280;5071;52.360;13.134;2023-01-28T02:38:36;102284.28;;;-0.20;85.06
10064;BME280;5071;52.360;13.134;2023-01-28T02:43:43;102279.91;;;-0.05;83.93
10064;BME280;5071;52.360;13.134;2023-01-28T02:48:46;102280.56;;;-0.09;84.02
10064;BME280;5071;52.360;13.134;2023-01-28T02:53:52;102285.78;;;-0.09;83.90
10064;BME280;5071;52.360;13.134;2023-01-28T02:59:02;102279.22;;;-0.17;84.96
10064;BME280;5071;52.360;13.134;2023-01-28T03:04:09;102289.63;;;-0.02;83.89
10064;BME280;5071;52.360;13.134;2023-01-28T03:09:16;102281.78;;;-0.02;83.44
10064;BME280;5071;52.360;13.134;2023-01-28T03:14:23;102288.06;;;-0.15;84.78
10064;BME280;5071;52.360;13.134;2023-01-28T03:19:25;102293.19;;;-0.16;85.06
10064;BME280;5071;52.360;13.134;2023-01-28T03:24:31;102292.09;;;-0.20;85.86
10064;BME280;5071;52.360;13.134;2023-01-28T03:29:35;102285.00;;;-0.23;86.07
10064;BME280;5071;52.360;13.134;2023-01-28T03:34:38;102290.47;;;-0.18;86.40
10064;BME280;5071;52.360;13.134;2023-01-28T03:39:41;102283.44;;;-0.19;86.51
10064;BME280;5071;52.360;13.134;2023-01-28T03:44:44;102279.75;;;-0.23;85.91
10064;BME280;5071;52.360;13.134;2023-01-28T03:49:48;102280.78;;;-0.21;86.41
10064;BME280;5071;52.360;13.134;2023-01-28T03:54:50;102280.84;;;-0.19;86.51
10064;BME280;5071;52.360;13.134;2023-01-28T03:59:54;102277.25;;;-0.21;86.00
10064;BME280;5071;52.360;13.134;2023-01-28T04:04:56;102267.97;;;-0.16;85.67
10064;BME280;5071;52.360;13.134;2023-01-28T04:09:58;102278.00;;;-0.24;86.64
10064;BME280;5071;52.360;13.134;2023-01-28T04:15:01;102275.94;;;-0.29;86.78
10064;BME280;5071;52.360;13.134;2023-01-28T04:20:03;102282.88;;;-0.30;86.19
10064;BME280;5071;52.360;13.134;2023-01-28T04:25:06;102283.66;;;-0.31;85.22
10064;BME280;5071;52.360;13.134;2023-01-28T04:30:11;102287.25;;;-0.29;86.01
10064;BME280;5071;52.360;13.134;2023-01-28T04:35:13;102289.88;;;-0.29;85.33
10064;BME280;5071;52.360;13.134;2023-01-28T04:40:16;102296.06;;;-0.27;85.17
10064;BME280;5071;52.360;13.134;2023-01-28T04:45:20;102295.00;;;-0.30;83.72
10064;BME280;5071;52.360;13.134;2023-01-28T04:50:22;102303.00;;;-0.27;83.58
10064;BME280;5071;52.360;13.134;2023-01-28T04:55:24;102290.16;;;-0.24;83.95
10064;BME280;5071;52.360;13.134;2023-01-28T05:00:27;102302.38;;;-0.23;83.08
10064;BME280;5071;52.360;13.134;2023-01-28T05:05:30;102302.91;;;-0.29;80.19
10064;BME280;5071;52.360;13.134;2023-01-28T05:10:32;102306.47;;;-0.12;80.09
10064;BME280;5071;52.360;13.134;2023-01-28T05:15:35;102315.81;;;-0.01;78.76
10064;BME280;5071;52.360;13.134;2023-01-28T05:20:38;102319.72;;;-0.09;79.52
10064;BME280;5071;52.360;13.134;2023-01-28T05:25:40;102322.03;;;-0.13;80.12
10064;BME280;5071;52.360;13.134;2023-01-28T05:30:44;102329.16;;;-0.11;80.50
10064;BME280;5071;52.360;13.134;2023-01-28T05:35:46;102324.47;;;-0.02;80.28
10064;BME280;5071;52.360;13.134;2023-01-28T05:40:48;102318.88;;;-0.08;79.89
10064;BME280;5071;52.360;13.134;2023-01-28T05:45:52;102324.94;;;-0.09;79.83
10064;BME280;5071;52.360;13.134;2023-01-28T05:50:53;102310.91;;;-0.11;80.19
10064;BME280;5071;52.360;13.134;2023-01-28T05:55:56;102316.91;;;-0.12;81.38
10064;BME280;5071;52.360;13.134;2023-01-28T06:00:59;102324.59;;;-0.15;81.36
10064;BME280;5071;52.360;13.134;2023-01-28T06:06:01;102313.69;;;-0.23;81.94
10064;BME280;5071;52.360;13.134;2023-01-28T06:11:03;102314.63;;;-0.22;82.22
10064;BME280;5071;52.360;13.134;2023-01-28T06:16:06;102328.44;;;-0.23;82.92
10064;BME280;5071;52.360;13.134;2023-01-28T06:21:08;102325.50;;;-0.29;83.04
10064;BME280;5071;52.360;13.134;2023-01-28T06:26:11;102330.09;;;-0.25;84.12
10064;BME280;5071;52.360;13.134;2023-01-28T06:31:14;102333.56;;;-0.25;84.48
10064;BME280;5071;52.360;13.134;2023-01-28T06:36:16;102336.72;;;-0.30;84.84
10064;BME280;5071;52.360;13.134;2023-01-28T06:41:18;102334.97;;;-0.31;85.45
10064;BME280;5071;52.360;13.134;2023-01-28T06:46:22;102340.88;;;-0.34;84.64
10064;BME280;5071;52.360;13.134;2023-01-28T06:51:23;102338.25;;;-0.34;84.56
10064;BME280;5071;52.360;13.134;2023-01-28T06:56:25;102348.00;;;-0.31;84.73
10064;BME280;5071;52.360;13.134;2023-01-28T07:01:28;102349.88;;;-0.29;84.90
10064;BME280;5071;52.360;13.134;2023-01-28T07:06:31;102343.94;;;-0.26;85.26
10064;BME280;5071;52.360;13.134;2023-01-28T07:11:32;102345.81;;;-0.24;83.76
10064;BME280;5071;52.360;13.134;2023-01-28T07:16:35;102341.03;;;-0.16;81.12
10064;BME280;5071;52.360;13.134;2023-01-28T07:21:37;102351.28;;;-0.04;82.16
10064;BME280;5071;52.360;13.134;2023-01-28T07:26:40;102350.56;;;-0.02;82.81
10064;BME280;5071;52.360;13.134;2023-01-28T07:31:43;102349.81;;;0.16;81.14
10064;BME280;5071;52.360;13.134;2023-01-28T07:36:45;102346.31;;;0.15;80.76
10064;BME280;5071;52.360;13.134;2023-01-28T07:41:47;102338.19;;;0.42;82.51
10064;BME280;5071;52.360;13.134;2023-01-28T07:46:51;102343.84;;;0.66;79.21
10064;BME280;5071;52.360;13.134;2023-01-28T07:51:53;102344.34;;;0.75;73.15
10064;BME280;5071;52.360;13.134;2023-01-28T07:56:54;102352.72;;;0.86;70.12
10064;BME280;5071;52.360;13.134;2023-01-28T08:01:58;102342.44;;;1.06;71.25
10064;BME280;5071;52.360;13.134;2023-01-28T08:06:59;102351.75;;;1.17;71.44
10064;BME280;5071;52.360;13.134;2023-01-28T08:12:02;102358.19;;;1.24;69.55
10064;BME280;5071;52.360;13.134;2023-01-28T08:17:05;102363.94;;;1.16;68.94
10064;BME280;5071;52.360;13.134;2023-01-28T08:22:07;102373.06;;;1.25;70.31
10064;BME280;5071;52.360;13.134;2023-01-28T08:27:09;102378.97;;;1.21;69.93
10064;BME280;5071;52.360;13.134;2023-01-28T08:32:12;102386.13;;;1.41;68.09
10064;BME280;5071;52.360;13.134;2023-01-28T08:37:14;102386.38;;;1.29;67.69
10064;BME280;5071;52.360;13.134;2023-01-28T08:42:16;102388.84;;;1.26;67.41
10064;BME280;5071;52.360;13.134;2023-01-28T08:47:21;102389.75;;;1.27;67.31
10064;BME280;5071;52.360;13.134;2023-01-28T08:52:23;102389.91;;;1.13;67.22
10064;BME280;5071;52.360;13.134;2023-01-28T08:57:24;102394.31;;;1.31;67.61
10064;BME280;5071;52.360;13.134;2023-01-28T09:02:28;102394.31;;;1.31;67.96
10064;BME280;5071;52.360;13.134;2023-01-28T09:07:33;102401.06;;;1.44;66.48
10064;BME280;5071;52.360;13.134;2023-01-28T09:12:36;102412.03;;;1.53;66.46
10064;BME280;5071;52.360;13.134;2023-01-28T09:17:39;102413.84;;;1.54;66.04
10064;BME280;5071;52.360;13.134;2023-01-28T09:22:41;102430.91;;;1.64;66.23
10064;BME280;5071;52.360;13.134;2023-01-28T09:27:43;102431.75;;;1.30;65.48
10064;BME280;5071;52.360;13.134;2023-01-28T09:32:50;102435.34;;;1.15;66.52
10064;BME280;5071;52.360;13.134;2023-01-28T09:37:55;102439.66;;;1.48;66.75
10064;BME280;5071;52.360;13.134;2023-01-28T09:43:07;102426.09;;;1.55;64.87
10064;BME280;5071;52.360;13.134;2023-01-28T09:48:19;102440.41;;;1.62;64.19
10064;BME280;5071;52.360;13.134;2023-01-28T09:53:24;102442.44;;;1.85;63.81
10064;BME280;5071;52.360;13.134;2023-01-28T09:58:28;102433.91;;;1.89;65.61
10064;BME280;5071;52.360;13.134;2023-01-28T10:03:42;102434.78;;;2.24;62.34
10064;BME280;5071;52.360;13.134;2023-01-28T10:09:07;102444.06;;;2.53;62.16
10064;BME280;5071;52.360;13.134;2023-01-28T10:14:19;102442.59;;;2.41;63.11
10064;BME280;5071;52.360;13.134;2023-01-28T10:19:31;102433.59;;;2.53;61.67
10064;BME280;5071;52.360;13.134;2023-01-28T10:24:35;102435.06;;;1.94;62.85
10064;BME280;5071;52.360;13.134;2023-01-28T10:29:41;102441.91;;;2.09;63.77
10064;BME280;5071;52.360;13.134;2023-01-28T10:34:44;102431.56;;;2.12;63.95
10064;BME280;5071;52.360;13.134;2023-01-28T10:39:46;102422.06;;;2.50;63.02
10064;BME280;5071;52.360;13.134;2023-01-28T10:44:49;102416.59;;;2.27;63.23
10064;BME280;5071;52.360;13.134;2023-01-28T10:49:57;102416.38;;;2.41;64.42
10064;BME280;5071;52.360;13.134;2023-01-28T10:55:01;102419.72;;;2.56;64.66
10064;BME280;5071;52.360;13.134;2023-01-28T11:00:12;102408.81;;;2.11;64.68
10064;BME280;5071;52.360;13.134;2023-01-28T11:05:25;102413.59;;;2.38;64.83
10064;BME280;5071;52.360;13.134;2023-01-28T11:10:30;102409.28;;;2.20;62.69
10064;BME280;5071;52.360;13.134;2023-01-28T11:15:33;102420.47;;;2.18;63.52
10064;BME280;5071;52.360;13.134;2023-01-28T11:20:40;102418.31;;;2.27;63.59
10064;BME280;5071;52.360;13.134;2023-01-28T11:25:43;102420.25;;;2.49;63.68
10064;BME280;5071;52.360;13.134;2023-01-28T11:30:49;102409.41;;;2.41;63.66
10064;BME280;5071;52.360;13.134;2023-01-28T11:35:57;102403.28;;;2.23;64.71
10064;BME280;5071;52.360;13.134;2023-01-28T11:41:04;102402.69;;;2.10;64.47
10064;BME280;5071;52.360;13.134;2023-01-28T11:46:18;102403.72;;;1.96;64.16
10064;BME280;5071;52.360;13.134;2023-01-28T11:51:31;102395.34;;;2.03;64.24
10064;BME280;5071;52.360;13.134;2023-01-28T11:56:50;102378.88;;;1.88;64.59
10064;BME280;5071;52.360;13.134;2023-01-28T12:02:31;102382.16;;;2.02;65.49
10064;BME280;5071;52.360;13.134;2023-01-28T12:07:44;102373.66;;;1.88;64.59
10064;BME280;5071;52.360;13.134;2023-01-28T12:13:02;102388.47;;;2.05;65.97
10064;BME280;5071;52.360;13.134;2023-01-28T12:18:17;102370.66;;;2.16;65.75
10064;BME280;5071;52.360;13.134;2023-01-28T12:23:32;102376.72;;;2.15;64.99
10064;BME280;5071;52.360;13.134;2023-01-28T12:28:50;102367.97;;;2.14;65.51
10064;BME280;5071;52.360;13.134;2023-01-28T12:34:06;102365.09;;;2.10;64.67
10064;BME280;5071;52.360;13.134;2023-01-28T12:39:28;102362.63;;;1.95;65.30
10064;BME280;5071;52.360;13.134;2023-01-28T12:44:39;102368.72;;;1.94;65.31
10064;BME280;5071;52.360;13.134;2023-01-28T12:49:47;102356.81;;;1.83;66.17
10064;BME280;5071;52.360;13.134;2023-01-28T12:54:57;102354.88;;;1.79;66.41
10064;BME280;5071;52.360;13.134;2023-01-28T13:00:05;102362.25;;;1.87;67.13
10064;BME280;5071;52.360;13.134;2023-01-28T13:05:20;102352.75;;;1.89;67.28
10064;BME280;5071;52.360;13.134;2023-01-28T13:10:31;102343.25;;;1.91;66.93
10064;BME280;5071;52.360;13.134;2023-01-28T13:15:38;102335.94;;;1.84;66.97
10064;BME280;5071;52.360;13.134;2023-01-28T13:20:47;102334.28;;;1.86;67.08
10064;BME280;5071;52.360;13.134;2023-01-28T13:25:52;102332.22;;;1.97;68.08
10064;BME280;5071;52.360;13.134;2023-01-28T13:31:01;102329.97;;;2.05;65.66
10064;BME280;5071;52.360;13.134;2023-01-28T13:36:15;102317.16;;;1.93;65.31
10064;BME280;5071;52.360;13.134;2023-01-28T13:41:23;102309.59;;;1.99;65.79
10064;BME280;5071;52.360;13.134;2023-01-28T13:46:43;102305.63;;;1.89;66.16
10064;BME280;5071;52.360;13.134;2023-01-28T13:51:56;102319.31;;;1.84;66.02
10064;BME280;5071;52.360;13.134;2023-01-28T14:10:36;102294.66;;;1.79;66.47
10064;BME280;5071;52.360;13.134;2023-01-28T14:21:49;102291.50;;;1.68;67.17
10064;BME280;5071;52.360;13.134;2023-01-28T14:26:58;102287.44;;;1.74;66.34
10064;BME280;5071;52.360;13.134;2023-01-28T14:32:04;102285.84;;;1.77;66.87
10064;BME280;5071;52.360;13.134;2023-01-28T14:37:08;102286.84;;;1.80;66.73
10064;BME280;5071;52.360;13.134;2023-01-28T14:42:55;102307.94;;;1.83;66.91
10064;BME280;5071;52.360;13.134;2023-01-28T15:00:58;102322.84;;;1.48;66.82
10064;BME280;5071;52.360;13.134;2023-01-28T15:06:43;102317.22;;;1.59;65.20
10064;BME280;5071;52.360;13.134;2023-01-28T15:11:47;102314.44;;;1.55;64.95
10064;BME280;5071;52.360;13.134;2023-01-28T15:16:53;102319.75;;;1.39;65.41
10064;BME280;5071;52.360;13.134;2023-01-28T15:22:22;102327.97;;;1.47;65.84
10064;BME280;5071;52.360;13.134;2023-01-28T15:27:28;102326.28;;;1.31;66.70
10064;BME280;5071;52.360;13.134;2023-01-28T15:32:32;102320.59;;;1.22;67.15
10064;BME280;5071;52.360;13.134;2023-01-28T15:37:34;102317.75;;;1.17;68.26
10064;BME280;5071;52.360;13.134;2023-01-28T15:42:36;102319.53;;;1.18;67.65
10064;BME280;5071;52.360;13.134;2023-01-28T15:47:39;102321.63;;;1.07;68.10
10064;BME280;5071;52.360;13.134;2023-01-28T15:52:41;102333.53;;;1.02;68.57
10064;BME280;5071;52.360;13.134;2023-01-28T15:57:43;102328.00;;;0.96;68.62
10064;BME280;5071;52.360;13.134;2023-01-28T16:02:48;102341.72;;;0.92;69.34
10064;BME280;5071;52.360;13.134;2023-01-28T16:07:51;102338.28;;;0.93;70.45
10064;BME280;5071;52.360;13.134;2023-01-28T16:13:03;102352.03;;;0.89;69.70
10064;BME280;5071;52.360;13.134;2023-01-28T16:18:15;102341.56;;;0.89;69.42
10064;BME280;5071;52.360;13.134;2023-01-28T16:23:25;102341.25;;;0.83;70.05
10064;BME280;5071;52.360;13.134;2023-01-28T16:28:28;102341.38;;;0.86;70.08
10064;BME280;5071;52.360;13.134;2023-01-28T16:33:31;102329.69;;;0.95;68.27
10064;BME280;5071;52.360;13.134;2023-01-28T16:38:34;102332.81;;;0.72;68.66
10064;BME280;5071;52.360;13.134;2023-01-28T16:43:36;102323.66;;;0.64;69.46
10064;BME280;5071;52.360;13.134;2023-01-28T16:48:39;102346.94;;;0.59;69.63
10064;BME280;5071;52.360;13.134;2023-01-28T16:53:41;102352.59;;;0.83;69.69
10064;BME280;5071;52.360;13.134;2023-01-28T16:58:44;102343.00;;;0.67;69.88
10064;BME280;5071;52.360;13.134;2023-01-28T17:03:49;102363.50;;;0.60;71.15
10064;BME280;5071;52.360;13.134;2023-01-28T17:08:51;102369.81;;;0.63;71.84
10064;BME280;5071;52.360;13.134;2023-01-28T17:13:54;102369.16;;;0.51;71.72
10064;BME280;5071;52.360;13.134;2023-01-28T17:18:57;102386.53;;;0.67;71.11
10064;BME280;5071;52.360;13.134;2023-01-28T17:23:59;102384.09;;;0.53;71.22
10064;BME280;5071;52.360;13.134;2023-01-28T17:29:02;102385.31;;;0.60;70.56
10064;BME280;5071;52.360;13.134;2023-01-28T17:34:05;102409.66;;;0.59;70.25
10064;BME280;5071;52.360;13.134;2023-01-28T17:39:07;102420.09;;;0.59;70.74
10064;BME280;5071;52.360;13.134;2023-01-28T17:44:11;102418.47;;;0.61;70.56
10064;BME280;5071;52.360;13.134;2023-01-28T17:49:16;102408.81;;;0.60;71.17
10064;BME280;5071;52.360;13.134;2023-01-28T17:54:21;102390.75;;;0.48;70.83
10064;BME280;5071;52.360;13.134;2023-01-28T17:59:25;102396.88;;;0.49;70.41
10064;BME280;5071;52.360;13.134;2023-01-28T18:04:29;102376.94;;;0.34;71.17
10064;BME280;5071;52.360;13.134;2023-01-28T18:09:30;102393.72;;;0.23;71.79
10064;BME280;5071;52.360;13.134;2023-01-28T18:14:32;102403.84;;;0.17;72.35
10064;BME280;5071;52.360;13.134;2023-01-28T18:19:45;102408.88;;;0.14;71.86
10064;BME280;5071;52.360;13.134;2023-01-28T18:24:47;102398.44;;;0.14;71.26
10064;BME280;5071;52.360;13.134;2023-01-28T18:29:49;102385.81;;;0.07;72.14
10064;BME280;5071;52.360;13.134;2023-01-28T18:34:52;102402.13;;;0.03;71.39
10064;BME280;5071;52.360;13.134;2023-01-28T18:39:54;102394.88;;;-0.18;72.53
10064;BME280;5071;52.360;13.134;2023-01-28T18:44:57;102387.38;;;-0.42;73.85
10064;BME280;5071;52.360;13.134;2023-01-28T18:50:03;102393.84;;;-0.65;74.59
10064;BME280;5071;52.360;13.134;2023-01-28T18:55:06;102389.44;;;-0.81;75.84
10064;BME280;5071;52.360;13.134;2023-01-28T19:00:09;102397.50;;;-0.91;76.40
10064;BME280;5071;52.360;13.134;2023-01-28T19:05:12;102398.22;;;-0.93;77.11
10064;BME280;5071;52.360;13.134;2023-01-28T19:10:15;102405.31;;;-0.91;77.14
10064;BME280;5071;52.360;13.134;2023-01-28T19:15:17;102396.50;;;-0.93;77.89
10064;BME280;5071;52.360;13.134;2023-01-28T19:20:20;102387.41;;;-1.00;77.53
10064;BME280;5071;52.360;13.134;2023-01-28T19:25:50;102386.03;;;-1.08;78.15
10064;BME280;5071;52.360;13.134;2023-01-28T19:30:52;102396.19;;;-1.12;78.90
10064;BME280;5071;52.360;13.134;2023-01-28T19:42:09;102383.16;;;-1.12;79.70
10064;BME280;5071;52.360;13.134;2023-01-28T19:47:11;102375.16;;;-1.15;79.76
10064;BME280;5071;52.360;13.134;2023-01-28T19:52:13;102379.16;;;-1.21;79.97
10064;BME280;5071;52.360;13.134;2023-01-28T19:57:16;102371.28;;;-1.35;80.06
10064;BME280;5071;52.360;13.134;2023-01-28T20:02:18;102393.00;;;-1.50;80.71
10064;BME280;5071;52.360;13.134;2023-01-28T20:07:38;102397.41;;;-1.62;80.83
10064;BME280;5071;52.360;13.134;2023-01-28T20:12:41;102411.75;;;-1.69;81.53
10064;BME280;5071;52.360;13.134;2023-01-28T20:17:43;102430.16;;;-1.79;82.77
10064;BME280;5071;52.360;13.134;2023-01-28T20:22:46;102422.56;;;-1.76;82.83
10064;BME280;5071;52.360;13.134;2023-01-28T20:27:49;102406.63;;;-1.81;83.08
10064;BME280;5071;52.360;13.134;2023-01-28T20:32:51;102400.75;;;-1.78;83.20
10064;BME280;5071;52.360;13.134;2023-01-28T20:38:15;102404.41;;;-1.88;83.49
10064;BME280;5071;52.360;13.134;2023-01-28T20:43:48;102396.63;;;-2.01;83.88
10064;BME280;5071;52.360;13.134;2023-01-28T20:48:52;102392.41;;;-2.12;84.50
10064;BME280;5071;52.360;13.134;2023-01-28T20:54:33;102389.53;;;-2.30;84.89
10064;BME280;5071;52.360;13.134;2023-01-28T20:59:37;102395.50;;;-2.31;85.56
10064;BME280;5071;52.360;13.134;2023-01-28T21:04:39;102383.72;;;-2.26;85.66
10064;BME280;5071;52.360;13.134;2023-01-28T21:09:41;102387.81;;;-2.17;85.31
10064;BME280;5071;52.360;13.134;2023-01-28T21:14:45;102400.31;;;-2.11;85.75
10064;BME280;5071;52.360;13.134;2023-01-28T21:20:06;102395.50;;;-2.05;85.21
10064;BME280;5071;52.360;13.134;2023-01-28T21:25:21;102379.31;;;-2.14;85.08
10064;BME280;5071;52.360;13.134;2023-01-28T21:30:25;102371.00;;;-2.22;85.48
10064;BME280;5071;52.360;13.134;2023-01-28T21:41:56;102362.66;;;-2.56;86.67
10064;BME280;5071;52.360;13.134;2023-01-28T21:47:17;102384.06;;;-2.60;87.73
10064;BME280;5071;52.360;13.134;2023-01-28T21:52:25;102384.66;;;-2.64;87.69
10064;BME280;5071;52.360;13.134;2023-01-28T21:57:27;102373.25;;;-2.66;88.46
10064;BME280;5071;52.360;13.134;2023-01-28T22:02:42;102375.22;;;-2.76;88.34
10064;BME280;5071;52.360;13.134;2023-01-28T22:07:46;102361.78;;;-2.82;89.20
10064;BME280;5071;52.360;13.134;2023-01-28T22:12:50;102369.19;;;-2.88;89.39
10064;BME280;5071;52.360;13.134;2023-01-28T22:17:53;102360.38;;;-2.90;89.64
10064;BME280;5071;52.360;13.134;2023-01-28T22:22:55;102354.22;;;-2.79;89.91
10064;BME280;5071;52.360;13.134;2023-01-28T22:27:57;102348.84;;;-2.68;89.94
10064;BME280;5071;52.360;13.134;2023-01-28T22:33:00;102351.16;;;-2.60;89.93
10064;BME280;5071;52.360;13.134;2023-01-28T22:38:18;102357.69;;;-2.40;89.36
10064;BME280;5071;52.360;13.134;2023-01-28T22:43:20;102350.91;;;-2.24;88.51
10064;BME280;5071;52.360;13.134;2023-01-28T22:48:23;102358.69;;;-2.11;88.01
10064;BME280;5071;52.360;13.134;2023-01-28T22:53:25;102342.59;;;-2.05;87.48
10064;BME280;5071;52.360;13.134;2023-01-28T22:58:28;102332.28;;;-2.04;87.48
10064;BME280;5071;52.360;13.134;2023-01-28T23:03:34;102337.19;;;-2.08;87.38
10064;BME280;5071;52.360;13.134;2023-01-28T23:08:36;102325.09;;;-2.21;87.38
10064;BME280;5071;52.360;13.134;2023-01-28T23:13:38;102340.72;;;-2.21;87.92
10064;BME280;5071;52.360;13.134;2023-01-28T23:18:41;102324.28;;;-2.20;87.84
10064;BME280;5071;52.360;13.134;2023-01-28T23:23:43;102309.41;;;-2.23;87.92
10064;BME280;5071;52.360;13.134;2023-01-28T23:28:45;102307.19;;;-2.17;87.73
10064;BME280;5071;52.360;13.134;2023-01-28T23:33:48;102306.28;;;-2.17;87.80
10064;BME280;5071;52.360;13.134;2023-01-28T23:38:50;102307.47;;;-1.99;87.22
10064;BME280;5071;52.360;13.134;2023-01-28T23:43:53;102289.91;;;-1.88;86.73
10064;BME280;5071;52.360;13.134;2023-01-28T23:48:56;102284.59;;;-1.76;86.69
10064;BME280;5071;52.360;13.134;2023-01-28T23:53:59;102293.78;;;-1.68;86.35
10064;BME280;5071;52.360;13.134;2023-01-28T23:59:01;102299.38;;;-1.62;85.80
